Time;durP1;ratioP1;P1;durP2;ratioP2;P2;SDS_P1;SDS_P2;PMS_P1;PMS_P2;Temp;Humidity;BMP_temperature;BMP_pressure;BME280_temperature;BME280_humidity;BME280_pressure;Samples;Min_cycle;Max_cycle;Signal;HPM_P1;HPM_P2
2022/06/09 00:01:49;;;;;;;16.40;15.20;;;;;;;18.66;71.52;99752.96;109733;1262;21976;-76
2022/06/09 00:04:30;;;;;;;18.00;16.30;;;;;;;18.59;71.66;99754.49;109742;1262;21967;-76
2022/06/09 00:07:15;;;;;;;17.70;16.20;;;;;;;18.54;71.98;99749.56;109302;1260;21980;-76
2022/06/09 00:09:53;;;;;;;18.80;17.30;;;;;;;18.51;72.22;99748.05;109733;1261;22007;-75
2022/06/09 00:12:25;;;;;;;18.40;16.70;;;;;;;18.49;72.37;99748.88;110059;1256;22642;-75
2022/06/09 00:14:57;;;;;;;19.80;18.00;;;;;;;18.51;72.65;99747.16;110651;1254;22988;-76
2022/06/09 00:17:27;;;;;;;19.60;18.00;;;;;;;18.54;72.66;99745.13;110115;1261;23008;-76
2022/06/09 00:19:56;;;;;;;17.70;16.20;;;;;;;18.57;72.70;99743.17;109646;1261;23009;-76
2022/06/09 00:22:26;;;;;;;20.00;18.10;;;;;;;18.62;72.75;99741.60;109800;1260;21963;-75
2022/06/09 00:24:57;;;;;;;21.60;19.80;;;;;;;18.65;72.74;99734.62;109838;1253;23586;-75
2022/06/09 00:27:27;;;;;;;;;;;;;;;18.67;72.63;99731.91;110515;1253;24315;-76
2022/06/09 00:29:56;;;;;;;23.50;21.40;;;;;;;18.60;72.73;99730.02;110479;1256;22040;-75
2022/06/09 00:32:26;;;;;;;24.20;22.10;;;;;;;18.61;72.72;99723.66;110253;1253;21974;-76
2022/06/09 00:34:55;;;;;;;24.00;22.20;;;;;;;18.64;72.58;99715.27;110372;1247;21963;-76
2022/06/09 00:37:26;;;;;;;25.40;23.20;;;;;;;18.66;72.57;99715.15;110871;1250;21953;-76
2022/06/09 00:39:57;;;;;;;25.30;23.00;;;;;;;18.66;72.46;99714.60;110747;1248;21965;-75
2022/06/09 00:42:27;;;;;;;25.70;23.40;;;;;;;18.65;72.46;99715.48;110918;1247;21971;-75
2022/06/09 00:45:33;;;;;;;24.60;22.50;;;;;;;18.63;72.46;99712.33;110840;1247;21953;-76
2022/06/09 00:48:36;;;;;;;24.20;22.00;;;;;;;18.60;72.44;99709.79;110715;1253;22808;-76
2022/06/09 00:51:10;;;;;;;25.70;23.60;;;;;;;18.56;72.53;99710.02;110564;1253;22948;-76
2022/06/09 00:53:41;;;;;;;26.00;23.90;;;;;;;18.53;72.55;99703.17;110235;1259;24382;-75
2022/06/09 00:56:16;;;;;;;26.10;24.00;;;;;;;18.53;72.74;99698.19;110036;1259;21979;-75
2022/06/09 00:58:54;;;;;;;26.20;24.10;;;;;;;18.52;72.83;99691.54;109958;1259;22542;-76
2022/06/09 01:01:32;;;;;;;26.60;24.50;;;;;;;18.51;72.83;99688.58;109858;1259;22220;-75
2022/06/09 01:04:17;;;;;;;26.20;23.70;;;;;;;18.52;72.90;99687.59;110204;1258;23130;-76
2022/06/09 01:07:23;;;;;;;25.90;23.60;;;;;;;18.51;72.99;99682.92;110320;1256;22070;-76
2022/06/09 01:10:10;;;;;;;27.00;24.80;;;;;;;18.51;73.03;99678.14;110147;1256;21964;-75
2022/06/09 01:12:46;;;;;;;31.00;28.20;;;;;;;18.52;73.14;99673.02;110820;1247;23587;-76
2022/06/09 01:15:58;;;;;;;32.00;29.20;;;;;;;18.52;73.12;99664.38;111107;1247;21947;-76
2022/06/09 01:19:02;;;;;;;28.90;26.40;;;;;;;18.53;73.26;99652.55;110923;1248;21947;-75
2022/06/09 01:21:58;;;;;;;27.60;25.20;;;;;;;18.53;73.38;99635.88;110634;1253;21949;-75
2022/06/09 01:25:14;;;;;;;30.00;27.50;;;;;;;18.55;73.37;99637.25;110642;1253;23194;-76
2022/06/09 01:28:17;;;;;;;35.40;32.40;;;;;;;18.54;73.45;99644.14;110680;1253;21947;-75
2022/06/09 01:31:08;;;;;;;35.10;32.30;;;;;;;18.52;73.43;99645.16;110692;1253;21955;-76
2022/06/09 01:34:09;;;;;;;33.30;30.20;;;;;;;18.53;73.50;99648.02;110534;1253;23307;-75
2022/06/09 01:37:09;;;;;;;30.30;27.80;;;;;;;18.51;73.46;99646.64;110643;1253;21960;-75
2022/06/09 01:39:48;;;;;;;30.20;27.80;;;;;;;18.46;73.41;99648.84;110645;1248;23019;-75
2022/06/09 01:42:23;;;;;;;;;;;;;;;18.44;73.67;99649.23;110581;1253;23608;-76
2022/06/09 01:45:12;;;;;;;30.50;27.90;;;;;;;18.37;73.78;99650.95;110560;1253;22437;-76
2022/06/09 01:48:07;;;;;;;31.30;28.50;;;;;;;18.33;74.04;99649.16;110532;1253;21963;-74
2022/06/09 01:51:16;;;;;;;32.90;30.10;;;;;;;18.30;74.13;99648.09;110489;1254;22200;-76
2022/06/09 01:54:00;;;;;;;32.80;30.10;;;;;;;18.26;74.01;99643.50;110215;1256;22183;-76
2022/06/09 01:57:09;;;;;;;32.30;29.60;;;;;;;18.23;74.11;99633.02;110013;1259;22046;-76
2022/06/09 02:00:08;;;;;;;30.90;28.20;;;;;;;18.18;74.23;99627.35;109322;1265;21975;-77
2022/06/09 02:02:50;;;;;;;30.50;28.00;;;;;;;18.14;74.40;99630.63;109305;1265;23858;-76
2022/06/09 02:05:26;;;;;;;31.00;28.20;;;;;;;18.14;74.74;99645.91;109432;1265;22044;-76
2022/06/09 02:08:02;;;;;;;30.80;28.00;;;;;;;18.15;75.01;99657.29;109599;1265;21966;-77
2022/06/09 02:10:40;;;;;;;30.10;27.50;;;;;;;18.17;74.99;99662.73;109377;1265;22054;-75
2022/06/09 02:13:19;;;;;;;29.40;26.60;;;;;;;18.16;74.89;99662.86;109832;1259;22036;-76
2022/06/09 02:15:52;;;;;;;28.70;26.20;;;;;;;18.13;75.06;99660.70;109993;1259;21971;-76
2022/06/09 02:18:27;;;;;;;27.70;25.40;;;;;;;18.11;75.07;99662.00;110103;1259;21969;-75
2022/06/09 02:21:09;;;;;;;30.60;27.80;;;;;;;18.10;75.21;99660.86;109970;1257;22090;-76
2022/06/09 02:23:38;;;;;;;;;;;;;;;18.11;75.32;99662.91;110322;1256;23034;-76
2022/06/09 02:26:08;;;;;;;27.70;25.20;;;;;;;18.04;75.63;99663.65;110228;1256;22764;-76
2022/06/09 02:28:40;;;;;;;29.50;26.80;;;;;;;18.03;75.69;99664.08;110053;1256;22037;-76
2022/06/09 02:31:10;;;;;;;28.30;26.00;;;;;;;18.06;75.75;99660.66;109734;1262;23040;-77
2022/06/09 02:33:40;;;;;;;30.50;26.90;;;;;;;18.06;75.77;99658.84;109370;1264;21982;-76
2022/06/09 02:36:12;;;;;;;26.90;24.20;;;;;;;18.05;75.87;99659.92;109914;1256;21975;-76
2022/06/09 02:38:44;;;;;;;29.00;26.10;;;;;;;18.04;75.97;99654.30;110335;1254;23791;-75
2022/06/09 02:41:15;;;;;;;26.60;24.20;;;;;;;18.05;76.16;99659.02;107995;1254;22316;-74
2022/06/09 02:43:48;;;;;;;24.50;22.10;;;;;;;18.06;76.29;99658.95;110460;1253;23822;-75
2022/06/09 02:46:17;;;;;;;27.20;24.90;;;;;;;18.11;76.49;99663.91;110345;1254;21965;-75
2022/06/09 02:48:53;;;;;;;28.40;25.90;;;;;;;18.16;76.59;99666.23;110437;1250;22324;-75
2022/06/09 02:51:33;;;;;;;27.90;25.00;;;;;;;18.22;76.63;99672.77;110823;1250;21953;-76
2022/06/09 02:54:10;;;;;;;27.20;24.40;;;;;;;18.24;76.51;99676.89;110618;1250;23658;-76
2022/06/09 02:56:42;;;;;;;26.00;23.60;;;;;;;18.24;76.59;99675.86;110796;1248;23662;-76
2022/06/09 02:59:11;;;;;;;;;;;;;;;18.27;76.60;99672.08;110798;1250;22267;-76
2022/06/09 03:01:41;;;;;;;27.00;24.30;;;;;;;18.21;76.75;99678.37;110488;1253;21955;-77
2022/06/09 03:04:11;;;;;;;26.00;23.10;;;;;;;18.23;76.80;99683.76;110365;1253;22742;-77
2022/06/09 03:06:40;;;;;;;25.90;23.40;;;;;;;18.27;76.72;99684.48;110488;1256;23590;-75
2022/06/09 03:09:10;;;;;;;26.90;24.60;;;;;;;18.30;76.70;99687.02;110457;1253;21958;-76
2022/06/09 03:11:40;;;;;;;25.60;23.30;;;;;;;18.34;76.72;99689.45;110499;1254;22967;-75
2022/06/09 03:14:10;;;;;;;24.50;22.30;;;;;;;18.36;76.60;99695.64;109965;1260;22036;-76
2022/06/09 03:16:40;;;;;;;26.40;23.70;;;;;;;18.39;76.75;99698.96;109911;1261;22335;-75
2022/06/09 03:19:10;;;;;;;24.60;22.40;;;;;;;18.44;76.72;99696.59;109930;1261;24120;-75
2022/06/09 03:21:39;;;;;;;25.00;22.80;;;;;;;18.47;76.56;99700.73;109419;1265;22791;-76
2022/06/09 03:24:09;;;;;;;25.60;23.60;;;;;;;18.49;76.59;99694.52;108804;1269;21988;-75
2022/06/09 03:26:38;;;;;;;25.90;23.60;;;;;;;18.49;76.41;99698.38;108927;1267;23017;-76
2022/06/09 03:29:08;;;;;;;25.20;22.80;;;;;;;18.50;76.49;99700.84;108919;1267;24418;-76
2022/06/09 03:31:38;;;;;;;26.50;23.90;;;;;;;18.50;76.47;99701.86;109023;1264;23638;-76
2022/06/09 03:34:07;;;;;;;27.00;24.60;;;;;;;18.52;76.42;99702.13;109588;1261;21972;-76
2022/06/09 03:36:37;;;;;;;25.70;23.50;;;;;;;18.52;76.46;99700.58;109624;1262;23193;-75
2022/06/09 03:39:06;;;;;;;25.20;23.20;;;;;;;18.55;76.44;99701.92;109798;1262;22188;-77
2022/06/09 03:41:38;;;;;;;27.80;25.20;;;;;;;18.58;76.31;99704.13;109282;1262;22992;-76
2022/06/09 03:44:07;;;;;;;25.90;23.60;;;;;;;18.56;76.21;99700.87;109393;1262;23583;-77
2022/06/09 03:46:39;;;;;;;25.90;23.50;;;;;;;18.56;76.27;99700.07;109583;1259;23026;-76
2022/06/09 03:49:09;;;;;;;25.10;23.00;;;;;;;18.59;76.47;99704.57;110118;1256;21954;-76
2022/06/09 03:51:52;;;;;;;24.30;22.20;;;;;;;18.63;76.53;99703.58;110568;1253;22190;-76
2022/06/09 03:54:27;;;;;;;25.60;23.30;;;;;;;18.64;76.33;99700.67;110484;1254;23541;-76
2022/06/09 03:57:06;;;;;;;25.20;22.50;;;;;;;18.66;76.28;99697.44;110485;1253;21954;-77
2022/06/09 03:59:37;;;;;;;25.90;23.60;;;;;;;18.65;76.02;99700.79;110571;1253;21974;-77
2022/06/09 04:02:23;;;;;;;24.30;22.10;;;;;;;18.62;76.19;99697.72;110642;1253;21993;-76
2022/06/09 04:05:09;;;;;;;28.10;25.20;;;;;;;18.62;76.26;99697.30;110585;1254;21971;-76
2022/06/09 04:08:04;;;;;;;27.10;24.60;;;;;;;18.66;76.46;99697.85;110563;1252;22731;-77
2022/06/09 04:10:39;;;;;;;26.10;23.90;;;;;;;18.70;76.57;99699.62;110591;1249;21950;-76
2022/06/09 04:13:09;;;;;;;26.20;24.00;;;;;;;18.77;76.57;99704.15;110666;1250;23021;-77
2022/06/09 04:15:56;;;;;;;25.10;23.00;;;;;;;18.83;76.52;99704.83;110849;1250;21956;-79
2022/06/09 04:19:01;;;;;;;26.70;24.20;;;;;;;18.89;76.51;99705.11;110977;1250;23570;-73
2022/06/09 04:21:37;;;;;;;33.90;24.90;;;;;;;18.95;76.38;99704.85;110878;1250;23075;-77
2022/06/09 04:24:41;;;;;;;;;;;;;;;;;;;;;
2022/06/09 04:27:16;;;;;;;27.60;24.40;;;;;;;19.04;76.14;99707.42;109977;1262;21968;-75
2022/06/09 04:29:47;;;;;;;26.10;24.00;;;;;;;19.08;75.97;99703.70;109987;1259;21985;-75
2022/06/09 04:32:17;;;;;;;25.80;23.70;;;;;;;19.13;75.76;99703.57;110263;1256;22064;-75
2022/06/09 04:35:18;;;;;;;25.80;23.60;;;;;;;19.17;75.58;99703.23;110022;1260;23044;-76
2022/06/09 04:38:04;;;;;;;24.20;21.50;;;;;;;19.18;75.32;99705.07;110449;1256;22992;-75
2022/06/09 04:41:01;;;;;;;24.20;22.20;;;;;;;19.17;75.06;99705.70;110092;1256;22081;-76
2022/06/09 04:43:57;;;;;;;24.60;22.60;;;;;;;19.15;74.98;99704.19;110595;1254;21966;-75
2022/06/09 04:46:31;;;;;;;25.70;23.70;;;;;;;19.17;75.18;99699.15;110658;1251;23549;-75
2022/06/09 04:49:09;;;;;;;25.90;23.80;;;;;;;19.21;75.23;99698.85;110939;1251;23030;-73
2022/06/09 04:51:39;;;;;;;24.80;22.70;;;;;;;19.28;75.47;99699.77;110734;1250;23024;-75
2022/06/09 04:54:12;;;;;;;26.70;24.30;;;;;;;19.38;75.32;99701.17;110869;1250;22037;-77
2022/06/09 04:56:41;;;;;;;25.40;23.50;;;;;;;19.44;75.06;99704.05;110672;1247;23628;-79
2022/06/09 04:59:11;;;;;;;25.60;23.20;;;;;;;19.49;74.66;99700.93;110932;1250;21947;-78
2022/06/09 05:01:41;;;;;;;24.80;22.80;;;;;;;19.51;74.48;99702.48;110839;1250;23040;-78
2022/06/09 05:04:15;;;;;;;25.10;23.00;;;;;;;19.57;74.34;99707.29;110868;1250;22259;-79
2022/06/09 05:06:47;;;;;;;23.80;21.60;;;;;;;19.63;74.32;99707.14;110725;1253;22977;-78
2022/06/09 05:09:27;;;;;;;25.00;23.00;;;;;;;19.69;74.23;99706.83;110989;1250;21950;-78
2022/06/09 05:11:59;;;;;;;24.70;22.20;;;;;;;19.73;73.90;99709.04;110956;1250;22060;-79
2022/06/09 05:14:28;;;;;;;22.80;20.50;;;;;;;19.81;74.06;99708.90;110775;1250;21983;-77
2022/06/09 05:17:04;;;;;;;23.00;21.00;;;;;;;19.92;73.82;99707.35;110834;1251;21995;-77
2022/06/09 05:19:48;;;;;;;23.40;21.30;;;;;;;19.97;73.45;99711.44;110910;1250;21957;-77
2022/06/09 05:22:31;;;;;;;23.40;21.60;;;;;;;20.02;73.20;99714.79;111021;1248;21956;-77
2022/06/09 05:26:04;;;;;;;24.00;21.90;;;;;;;20.08;72.86;99717.51;110842;1250;21953;-77
2022/06/09 05:29:16;;;;;;;24.40;22.50;;;;;;;20.08;72.69;99718.16;109718;1264;22197;-78
2022/06/09 05:32:03;;;;;;;23.10;20.80;;;;;;;20.10;72.53;99719.84;109675;1262;21981;-78
2022/06/09 05:34:44;;;;;;;23.10;21.00;;;;;;;20.15;72.59;99722.55;109888;1262;23647;-77
2022/06/09 05:37:24;;;;;;;24.30;22.30;;;;;;;20.22;72.29;99723.18;109709;1262;23732;-78
2022/06/09 05:45:38;;;;;;;24.20;22.00;;;;;;;20.26;71.45;99719.48;109505;1262;22760;-77
2022/06/09 05:48:08;;;;;;;22.40;20.50;;;;;;;20.22;71.42;99719.27;110378;1257;22150;-78
2022/06/09 05:50:37;;;;;;;20.90;19.10;;;;;;;20.26;71.61;99717.70;110441;1256;23597;-79
2022/06/09 05:53:07;;;;;;;21.90;20.20;;;;;;;20.29;71.54;99721.02;110442;1256;21963;-78
2022/06/09 05:55:37;;;;;;;22.30;20.50;;;;;;;20.33;71.43;99724.14;109844;1260;23061;-78
2022/06/09 05:58:08;;;;;;;21.80;19.80;;;;;;;20.38;71.41;99721.86;109781;1262;21967;-77
2022/06/09 06:00:41;;;;;;;22.00;20.20;;;;;;;20.48;71.51;99721.73;109592;1262;21986;-78
2022/06/09 06:03:16;;;;;;;20.90;19.30;;;;;;;20.59;71.40;99724.73;109344;1265;23700;-79
2022/06/09 06:08:38;;;;;;;21.10;19.20;;;;;;;20.74;71.28;99719.71;110067;1262;23604;-78
2022/06/09 06:11:08;;;;;;;23.70;21.70;;;;;;;20.82;70.76;99717.39;110046;1261;21980;-77
2022/06/09 06:13:38;;;;;;;20.50;18.60;;;;;;;20.93;70.56;99718.80;109594;1264;23024;-78
2022/06/09 06:16:10;;;;;;;20.90;19.30;;;;;;;21.09;70.63;99717.96;109222;1264;21962;-79
2022/06/09 06:19:00;;;;;;;20.80;19.10;;;;;;;21.23;69.71;99714.23;109070;1265;22066;-78
2022/06/09 06:21:32;;;;;;;20.50;18.60;;;;;;;21.27;68.93;99714.29;109985;1256;21969;-78
2022/06/09 06:24:03;;;;;;;19.00;17.50;;;;;;;21.32;69.00;99716.23;110476;1254;22037;-75
2022/06/09 06:26:34;;;;;;;18.30;16.70;;;;;;;21.41;68.48;99715.94;110543;1254;21960;-76
2022/06/09 06:29:08;;;;;;;19.10;17.40;;;;;;;21.41;67.89;99715.84;110413;1254;22074;-80
2022/06/09 06:31:40;;;;;;;18.20;16.60;;;;;;;21.43;67.80;99720.69;110568;1255;21977;-79
2022/06/09 06:34:11;;;;;;;18.10;16.80;;;;;;;21.45;67.65;99718.95;110250;1255;23595;-79
2022/06/09 06:36:43;;;;;;;17.50;16.30;;;;;;;21.51;67.87;99721.80;110467;1256;21978;-77
2022/06/09 06:39:13;;;;;;;19.10;17.40;;;;;;;21.60;68.01;99720.31;111074;1247;21961;-78
2022/06/09 06:41:43;;;;;;;17.40;15.90;;;;;;;21.67;67.40;99724.03;110887;1247;23665;-78
2022/06/09 06:44:12;;;;;;;18.40;16.60;;;;;;;21.68;66.98;99723.73;110992;1248;21949;-78
2022/06/09 06:46:42;;;;;;;17.90;16.50;;;;;;;21.73;66.99;99725.74;110928;1248;22838;-77
2022/06/09 06:49:13;;;;;;;17.40;16.00;;;;;;;21.79;66.63;99726.55;111082;1248;21952;-78
2022/06/09 06:51:42;;;;;;;17.10;15.70;;;;;;;21.84;66.35;99727.19;110917;1248;21920;-79
2022/06/09 06:54:12;;;;;;;15.80;14.50;;;;;;;21.84;65.90;99730.78;110860;1251;23570;-78
2022/06/09 06:56:43;;;;;;;19.70;18.10;;;;;;;21.90;66.40;99732.77;110908;1250;23974;-81
2022/06/09 06:59:18;;;;;;;18.00;16.40;;;;;;;22.03;66.61;99729.95;111061;1248;22017;-81
2022/06/09 07:01:50;;;;;;;18.20;16.60;;;;;;;22.18;66.17;99733.09;111029;1248;21956;-79
2022/06/09 07:04:22;;;;;;;17.20;15.90;;;;;;;22.27;65.52;99733.80;110790;1248;22320;-79
2022/06/09 07:07:12;;;;;;;17.90;16.40;;;;;;;22.34;65.14;99733.20;110466;1254;22128;-77
2022/06/09 07:10:14;;;;;;;17.30;15.60;;;;;;;22.42;65.27;99734.70;110602;1254;21965;-77
2022/06/09 07:12:46;;;;;;;18.60;17.20;;;;;;;22.51;64.68;99734.31;110533;1253;21966;-78
2022/06/09 07:15:16;;;;;;;18.30;16.70;;;;;;;22.50;63.82;99738.92;110383;1253;23828;-77
2022/06/09 07:17:46;;;;;;;16.90;15.60;;;;;;;22.48;63.90;99737.52;110474;1255;21980;-77
2022/06/09 07:20:18;;;;;;;17.60;16.20;;;;;;;22.53;64.15;99738.30;110506;1256;23861;-79
2022/06/09 07:22:48;;;;;;;18.40;16.80;;;;;;;22.62;64.13;99736.46;110447;1256;22019;-80
2022/06/09 07:25:23;;;;;;;17.00;15.70;;;;;;;22.70;63.48;99739.30;109966;1258;22011;-81
2022/06/09 07:27:54;;;;;;;18.50;16.80;;;;;;;22.66;62.74;99743.80;110187;1256;21973;-77
2022/06/09 07:30:27;;;;;;;17.50;16.20;;;;;;;22.64;62.74;99745.64;110429;1256;23090;-77
2022/06/09 07:32:58;;;;;;;16.50;15.20;;;;;;;22.69;63.15;99742.27;110404;1255;23030;-76
2022/06/09 07:35:32;;;;;;;17.50;15.70;;;;;;;22.83;63.34;99742.48;110150;1255;23481;-77
2022/06/09 07:38:05;;;;;;;15.80;14.50;;;;;;;23.02;63.17;99746.02;110219;1259;23003;-76
2022/06/09 07:40:37;;;;;;;15.40;14.20;;;;;;;23.19;62.72;99747.91;109358;1264;23075;-75
2022/06/09 07:43:11;;;;;;;15.10;13.80;;;;;;;23.35;61.67;99748.33;109655;1263;22007;-77
2022/06/09 07:45:42;;;;;;;16.20;14.80;;;;;;;23.39;60.72;99750.22;109517;1264;21935;-77
2022/06/09 07:48:12;;;;;;;17.10;15.50;;;;;;;23.38;60.24;99755.49;109490;1264;22939;-76
2022/06/09 07:51:03;;;;;;;17.80;16.50;;;;;;;23.36;60.33;99758.83;109949;1258;23033;-76
2022/06/09 07:53:32;;;;;;;17.00;15.60;;;;;;;23.34;60.25;99765.24;110306;1257;21951;-75
2022/06/09 07:56:01;;;;;;;15.40;14.10;;;;;;;23.35;60.50;99768.54;110567;1256;22017;-75
2022/06/09 07:58:31;;;;;;;15.60;14.30;;;;;;;23.43;60.24;99770.50;110558;1251;23024;-78
2022/06/09 08:01:01;;;;;;;16.50;15.00;;;;;;;23.53;60.51;99768.08;110613;1250;21916;-75
2022/06/09 08:03:30;;;;;;;17.90;16.40;;;;;;;23.63;59.99;99771.48;110680;1250;22038;-74
2022/06/09 08:06:00;;;;;;;17.50;15.80;;;;;;;23.66;59.49;99776.52;110982;1250;22072;-75
2022/06/09 08:08:52;;;;;;;15.90;14.40;;;;;;;23.69;59.67;99776.01;110767;1250;21956;-74
2022/06/09 08:11:22;;;;;;;17.70;16.10;;;;;;;23.78;59.65;99779.46;111024;1250;23818;-74
2022/06/09 08:13:52;;;;;;;18.80;17.00;;;;;;;23.81;59.17;99778.17;110593;1253;23694;-74
2022/06/09 08:16:21;;;;;;;19.40;17.90;;;;;;;23.82;58.85;99777.48;110716;1253;22956;-74
2022/06/09 08:18:51;;;;;;;17.00;15.70;;;;;;;23.91;59.77;99777.36;110369;1253;21978;-74
2022/06/09 08:21:21;;;;;;;16.00;14.70;;;;;;;24.23;60.12;99780.64;110590;1254;22657;-74
2022/06/09 08:24:09;;;;;;;17.00;15.60;;;;;;;24.54;58.91;99785.25;110695;1253;23026;-74
2022/06/09 08:26:40;;;;;;;16.80;15.40;;;;;;;24.70;57.60;99789.20;110049;1257;23037;-74
2022/06/09 08:29:09;;;;;;;17.70;15.90;;;;;;;24.74;57.12;99784.98;109769;1262;23027;-74
2022/06/09 08:31:39;;;;;;;17.30;15.80;;;;;;;24.76;56.90;99783.84;109773;1263;22009;-74
2022/06/09 08:34:10;;;;;;;16.20;14.80;;;;;;;24.61;55.57;99787.88;109959;1261;23669;-74
2022/06/09 08:36:40;;;;;;;15.50;13.80;;;;;;;24.38;55.90;99783.88;109700;1261;21962;-74
2022/06/09 08:39:10;;;;;;;14.40;13.30;;;;;;;24.45;57.79;99783.01;110000;1259;23550;-74
2022/06/09 08:41:56;;;;;;;15.00;13.70;;;;;;;24.84;58.08;99778.25;110196;1256;23072;-78
2022/06/09 08:44:55;;;;;;;14.00;13.00;;;;;;;25.04;56.29;99773.95;110413;1254;21966;-73
2022/06/09 08:47:51;;;;;;;13.90;12.70;;;;;;;25.29;56.11;99772.71;110800;1248;22733;-73
2022/06/09 08:50:32;;;;;;;13.30;12.20;;;;;;;25.85;56.29;99773.33;110815;1251;21968;-75
2022/06/09 08:53:21;;;;;;;14.10;12.80;;;;;;;26.35;54.29;99772.16;111034;1250;21967;-74
2022/06/09 08:55:55;;;;;;;13.80;12.70;;;;;;;26.55;51.35;99772.26;110497;1254;21975;-75
2022/06/09 08:58:43;;;;;;;14.40;12.40;;;;;;;26.53;50.83;99768.33;110633;1254;24361;-75
2022/06/09 09:01:43;;;;;;;12.40;11.50;;;;;;;26.40;50.06;99771.21;110446;1256;21975;-75
2022/06/09 09:04:42;;;;;;;13.30;11.90;;;;;;;26.21;50.19;99768.42;110389;1255;22983;-77
2022/06/09 09:07:31;;;;;;;13.10;11.90;;;;;;;26.02;51.00;99774.38;110359;1255;21956;-76
2022/06/09 09:10:35;;;;;;;13.20;12.10;;;;;;;25.99;51.18;99775.76;109826;1260;24269;-76
2022/06/09 09:13:19;;;;;;;13.70;12.60;;;;;;;25.88;50.82;99780.62;109142;1267;22045;-75
2022/06/09 09:16:04;;;;;;;12.40;11.20;;;;;;;25.73;50.74;99779.52;110045;1260;23599;-76
2022/06/09 09:18:45;;;;;;;13.70;11.90;;;;;;;25.69;51.51;99784.63;109936;1261;21998;-76
2022/06/09 09:21:38;;;;;;;11.90;11.00;;;;;;;25.70;51.60;99791.81;109940;1260;24145;-76
2022/06/09 09:24:47;;;;;;;12.50;11.50;;;;;;;25.68;51.27;99795.88;109989;1260;21967;-76
2022/06/09 09:27:36;;;;;;;13.40;12.40;;;;;;;25.62;51.07;99794.03;109793;1260;21961;-75
2022/06/09 09:30:40;;;;;;;12.70;11.50;;;;;;;25.49;50.97;99796.60;110325;1257;21964;-76
2022/06/09 09:33:19;;;;;;;12.80;11.70;;;;;;;25.42;51.50;99795.79;110274;1259;22163;-77
2022/06/09 09:35:54;;;;;;;12.40;11.50;;;;;;;25.35;51.36;99796.69;110330;1257;22040;-76
2022/06/09 09:38:31;;;;;;;12.60;11.40;;;;;;;25.28;51.58;99797.49;110187;1258;23084;-76
2022/06/09 09:41:01;;;;;;;12.40;11.20;;;;;;;25.23;51.95;99802.16;109687;1262;21977;-75
2022/06/09 09:43:40;;;;;;;11.50;10.40;;;;;;;25.15;52.20;99799.64;109723;1263;22629;-76
2022/06/09 09:46:33;;;;;;;10.80;10.00;;;;;;;25.06;52.31;99795.23;109635;1264;21975;-76
2022/06/09 09:49:15;;;;;;;11.40;10.40;;;;;;;24.93;52.04;99795.45;109617;1263;21983;-76
2022/06/09 09:51:44;;;;;;;11.30;10.50;;;;;;;24.83;52.47;99797.27;109837;1262;22042;-76
2022/06/09 09:54:39;;;;;;;11.60;10.70;;;;;;;24.77;53.02;99802.58;109745;1263;23085;-76
2022/06/09 09:57:21;;;;;;;11.00;10.00;;;;;;;24.76;53.55;99802.91;108900;1270;21974;-76
2022/06/09 09:59:55;;;;;;;10.30;9.40;;;;;;;24.79;53.89;99804.46;108999;1267;21978;-77
2022/06/09 10:08:46;;;;;;;11.50;10.60;;;;;;;25.06;53.23;99803.55;109178;1267;21988;-76
2022/06/09 10:15:05;;;;;;;10.10;9.20;;;;;;;25.03;52.76;99803.95;108997;1264;21972;-76
2022/06/09 10:18:02;;;;;;;9.60;8.70;;;;;;;24.93;52.81;99806.74;108951;1268;23589;-76
2022/06/09 10:20:51;;;;;;;10.10;9.10;;;;;;;24.87;53.27;99807.19;108956;1268;22444;-78
2022/06/09 10:23:43;;;;;;;11.10;9.70;;;;;;;24.88;53.30;99808.54;109060;1267;23660;-77
2022/06/09 10:26:29;;;;;;;11.00;9.80;;;;;;;24.85;53.17;99811.30;108699;1273;24316;-77
2022/06/09 10:29:21;;;;;;;11.10;10.20;;;;;;;24.86;53.36;99813.04;108868;1267;23012;-77
2022/06/09 10:32:06;;;;;;;12.20;10.00;;;;;;;24.89;53.26;99815.63;108915;1271;22213;-77
2022/06/09 10:34:43;;;;;;;10.70;9.80;;;;;;;24.93;53.47;99813.33;108611;1270;21992;-77
2022/06/09 10:38:02;;;;;;;10.40;9.50;;;;;;;25.00;53.47;99814.55;109274;1269;22593;-75
2022/06/09 10:40:54;;;;;;;11.10;10.20;;;;;;;25.08;53.21;99817.22;108661;1271;23612;-76
2022/06/09 10:43:35;;;;;;;12.10;10.60;;;;;;;25.11;52.63;99814.19;108711;1271;22161;-75
2022/06/09 10:46:44;;;;;;;11.10;10.30;;;;;;;25.10;52.60;99812.67;108908;1270;23022;-76
2022/06/09 10:56:00;;;;;;;11.10;10.20;;;;;;;25.39;52.85;99813.11;109493;1268;22020;-79
2022/06/09 10:58:38;;;;;;;12.50;11.50;;;;;;;25.44;52.47;99809.02;109304;1265;21989;-75
2022/06/09 11:01:21;;;;;;;10.60;9.80;;;;;;;25.49;52.65;99809.69;110140;1262;22677;-75
2022/06/09 11:03:51;;;;;;;18.10;10.80;;;;;;;25.59;52.65;99811.04;109730;1264;23095;-74
2022/06/09 11:06:57;;;;;;;12.50;11.30;;;;;;;25.68;52.33;99808.38;109428;1264;23001;-75
2022/06/09 11:10:04;;;;;;;12.60;11.20;;;;;;;25.74;52.02;99806.11;109751;1263;23678;-76
2022/06/09 11:12:55;;;;;;;11.10;10.10;;;;;;;25.72;51.32;99803.09;109875;1262;21987;-74
2022/06/09 11:16:14;;;;;;;10.80;9.90;;;;;;;25.69;51.20;99802.80;109751;1262;22272;-75
2022/06/09 11:18:57;;;;;;;10.70;9.80;;;;;;;25.64;51.55;99809.11;110560;1257;23583;-75
2022/06/09 11:21:44;;;;;;;11.00;10.20;;;;;;;25.57;51.67;99809.27;110444;1257;22145;-75
2022/06/09 11:24:29;;;;;;;11.40;10.50;;;;;;;25.52;51.77;99806.92;110373;1257;22070;-76
2022/06/09 11:27:52;;;;;;;12.40;9.80;;;;;;;25.44;52.10;99803.19;110807;1251;23670;-75
2022/06/09 11:31:08;;;;;;;10.00;9.00;;;;;;;25.44;52.68;99800.20;110371;1257;21970;-75
2022/06/09 11:34:23;;;;;;;12.30;11.30;;;;;;;25.51;52.71;99802.98;110367;1257;21978;-74
2022/06/09 11:37:27;;;;;;;13.50;12.40;;;;;;;25.51;52.57;99809.57;109924;1262;22544;-74
2022/06/09 11:40:21;;;;;;;11.30;10.40;;;;;;;25.53;52.34;99806.85;109698;1263;23080;-75
2022/06/09 11:43:54;;;;;;;11.40;10.50;;;;;;;25.52;52.11;99803.84;109603;1264;21994;-75
2022/06/09 11:46:37;;;;;;;10.60;9.50;;;;;;;25.53;52.29;99794.95;108916;1270;23777;-74
2022/06/09 11:49:21;;;;;;;10.60;9.80;;;;;;;25.60;52.44;99795.13;108804;1271;23039;-74
2022/06/09 11:51:51;;;;;;;11.20;10.20;;;;;;;25.68;52.13;99800.02;108722;1272;22459;-75
2022/06/09 11:54:53;;;;;;;12.30;11.30;;;;;;;25.73;51.68;99801.04;108939;1270;23694;-74
2022/06/09 11:57:31;;;;;;;12.30;11.20;;;;;;;25.73;51.64;99803.04;108421;1277;22091;-75
2022/06/09 12:00:24;;;;;;;10.70;9.70;;;;;;;25.76;51.85;99803.58;108473;1273;22421;-75
2022/06/09 12:03:37;;;;;;;9.90;9.20;;;;;;;25.82;51.82;99806.91;108649;1274;22518;-75
2022/06/09 12:06:48;;;;;;;11.10;10.10;;;;;;;25.88;51.84;99801.13;108451;1270;23051;-74
2022/06/09 12:09:50;;;;;;;11.10;10.10;;;;;;;25.91;51.42;99795.80;108261;1279;22031;-74
2022/06/09 12:12:43;;;;;;;11.10;10.10;;;;;;;25.95;51.41;99793.71;108141;1277;22060;-74
2022/06/09 12:15:15;;;;;;;11.50;10.40;;;;;;;25.96;51.12;99794.41;108453;1276;24661;-75
2022/06/09 12:18:17;;;;;;;12.20;11.20;;;;;;;25.97;51.38;99789.09;108423;1276;21997;-75
2022/06/09 12:20:46;;;;;;;13.20;12.10;;;;;;;25.98;51.59;99781.83;108324;1279;21998;-74
2022/06/09 12:24:03;;;;;;;21.20;19.50;;;;;;;26.04;51.60;99779.66;108424;1274;21978;-74
2022/06/09 12:26:44;;;;;;;12.60;11.70;;;;;;;26.13;51.40;99777.92;108756;1269;21999;-74
2022/06/09 12:29:34;;;;;;;12.20;11.20;;;;;;;26.20;51.15;99787.59;109159;1267;24289;-75
2022/06/09 12:32:09;;;;;;;12.30;11.30;;;;;;;26.27;51.24;99788.02;109129;1267;22005;-75
2022/06/09 12:34:51;;;;;;;13.20;12.10;;;;;;;26.35;50.71;99780.02;109666;1263;22191;-75
2022/06/09 12:37:30;;;;;;;13.70;12.50;;;;;;;26.35;50.11;99778.85;109752;1262;22349;-75
2022/06/09 12:40:18;;;;;;;13.20;11.90;;;;;;;26.33;50.20;99779.13;109352;1263;21978;-75